Highland Heights, Ohio
Current Conditions -  °F | °C
As of 7:45 PM on Tuesday 21 Oct 2014 (Local Time) from KCGF Reporting Station
Light Rain Light Rain  
Wind Chill: 10°   Ceiling: 600
Heat Index: 10°   Visibility: 5mi
Dew Point:   Wind: 14mph
Humidity: 94%   Direction: 10°N
Pressure: 30.05"   Gusts: NA
Location:  41.5545°N, 81.4746°W
Report Text: KCGF 212345Z 01012KT 5SM -RA BR BKN006 OVC010 10/09 A3005
Loading
Personal Weather Stations






























Interactive Weather Map
Tropical Storm Tracking
New forecast layout! Learn more

10-Day Weather Forecast

Advertisements
Track Severe Weather on mobile